sensor_id;sensor_type;location;lat;lon;timestamp;pressure;altitude;pressure_sealevel;temperature;humidity
17362;BME280;8798;51.938;4.348;2023-04-23T00:01:16;100399.81;;;11.53;79.34
17362;BME280;8798;51.938;4.348;2023-04-23T00:03:47;100412.91;;;11.56;79.88
17362;BME280;8798;51.938;4.348;2023-04-23T00:06:16;100432.91;;;11.61;79.77
17362;BME280;8798;51.938;4.348;2023-04-23T00:08:44;100460.34;;;11.65;79.41
17362;BME280;8798;51.938;4.348;2023-04-23T00:11:14;100466.56;;;11.66;79.34
17362;BME280;8798;51.938;4.348;2023-04-23T00:13:42;100480.69;;;11.68;79.57
17362;BME280;8798;51.938;4.348;2023-04-23T00:16:13;100484.22;;;11.68;79.86
17362;BME280;8798;51.938;4.348;2023-04-23T00:18:41;100483.38;;;11.68;79.47
17362;BME280;8798;51.938;4.348;2023-04-23T00:21:10;100476.28;;;11.67;79.63
17362;BME280;8798;51.938;4.348;2023-04-23T00:23:38;100466.03;;;11.62;79.77
17362;BME280;8798;51.938;4.348;2023-04-23T00:26:06;100447.72;;;11.57;79.84
17362;BME280;8798;51.938;4.348;2023-04-23T00:28:34;100426.03;;;11.51;79.84
17362;BME280;8798;51.938;4.348;2023-04-23T00:31:02;100399.78;;;11.45;79.78
17362;BME280;8798;51.938;4.348;2023-04-23T00:33:30;100392.06;;;11.41;79.60
17362;BME280;8798;51.938;4.348;2023-04-23T00:35:57;100393.94;;;11.41;79.41
17362;BME280;8798;51.938;4.348;2023-04-23T00:38:27;100398.28;;;11.42;79.62
17362;BME280;8798;51.938;4.348;2023-04-23T00:40:54;100419.50;;;11.45;79.51
17362;BME280;8798;51.938;4.348;2023-04-23T00:43:22;100439.63;;;11.49;79.42
17362;BME280;8798;51.938;4.348;2023-04-23T00:45:50;100450.91;;;11.53;79.95
17362;BME280;8798;51.938;4.348;2023-04-23T00:48:18;100472.09;;;11.56;79.34
17362;BME280;8798;51.938;4.348;2023-04-23T00:50:46;100487.06;;;11.58;80.26
17362;BME280;8798;51.938;4.348;2023-04-23T00:53:13;100503.69;;;11.62;79.89
17362;BME280;8798;51.938;4.348;2023-04-23T00:55:43;100502.03;;;11.61;79.52
17362;BME280;8798;51.938;4.348;2023-04-23T00:58:11;100504.72;;;11.61;80.11
17362;BME280;8798;51.938;4.348;2023-04-23T01:00:42;100498.31;;;11.62;79.51
17362;BME280;8798;51.938;4.348;2023-04-23T01:03:12;100513.47;;;11.63;79.65
17362;BME280;8798;51.938;4.348;2023-04-23T01:05:41;100515.31;;;11.62;80.28
17362;BME280;8798;51.938;4.348;2023-04-23T01:08:13;100530.09;;;11.67;79.88
17362;BME280;8798;51.938;4.348;2023-04-23T01:10:43;100550.28;;;11.71;79.48
17362;BME280;8798;51.938;4.348;2023-04-23T01:13:12;100544.91;;;11.71;79.36
17362;BME280;8798;51.938;4.348;2023-04-23T01:15:40;100551.97;;;11.72;79.91
17362;BME280;8798;51.938;4.348;2023-04-23T01:18:08;100563.41;;;11.74;79.88
17362;BME280;8798;51.938;4.348;2023-04-23T01:20:36;100571.47;;;11.74;79.26
17362;BME280;8798;51.938;4.348;2023-04-23T01:23:06;100558.22;;;11.72;79.35
17362;BME280;8798;51.938;4.348;2023-04-23T01:25:34;100559.88;;;11.73;79.96
17362;BME280;8798;51.938;4.348;2023-04-23T01:28:02;100566.09;;;11.74;79.63
17362;BME280;8798;51.938;4.348;2023-04-23T01:30:32;100568.78;;;11.74;79.51
17362;BME280;8798;51.938;4.348;2023-04-23T01:33:00;100570.66;;;11.73;79.88
17362;BME280;8798;51.938;4.348;2023-04-23T01:35:29;100566.94;;;11.74;80.01
17362;BME280;8798;51.938;4.348;2023-04-23T01:37:58;100582.09;;;11.75;79.94
17362;BME280;8798;51.938;4.348;2023-04-23T01:40:28;100584.59;;;11.77;79.93
17362;BME280;8798;51.938;4.348;2023-04-23T01:42:56;100573.84;;;11.77;79.93
17362;BME280;8798;51.938;4.348;2023-04-23T01:45:24;100589.97;;;11.77;79.77
17362;BME280;8798;51.938;4.348;2023-04-23T01:47:51;100596.91;;;11.79;79.47
17362;BME280;8798;51.938;4.348;2023-04-23T01:50:20;100608.31;;;11.81;79.81
17362;BME280;8798;51.938;4.348;2023-04-23T01:52:49;100625.16;;;11.83;79.45
17362;BME280;8798;51.938;4.348;2023-04-23T01:55:17;100633.78;;;11.87;79.36
17362;BME280;8798;51.938;4.348;2023-04-23T01:57:47;100640.69;;;11.90;79.53
17362;BME280;8798;51.938;4.348;2023-04-23T02:00:15;100648.59;;;11.91;79.57
17362;BME280;8798;51.938;4.348;2023-04-23T02:02:43;100652.09;;;11.92;80.08
17362;BME280;8798;51.938;4.348;2023-04-23T02:05:14;100651.13;;;11.93;79.41
17362;BME280;8798;51.938;4.348;2023-04-23T02:07:45;100650.97;;;11.94;79.58
17362;BME280;8798;51.938;4.348;2023-04-23T02:10:13;100663.41;;;11.95;79.74
17362;BME280;8798;51.938;4.348;2023-04-23T02:12:41;100649.25;;;11.93;79.75
17362;BME280;8798;51.938;4.348;2023-04-23T02:15:11;100643.19;;;11.91;79.91
17362;BME280;8798;51.938;4.348;2023-04-23T02:17:39;100633.59;;;11.89;79.81
17362;BME280;8798;51.938;4.348;2023-04-23T02:20:07;100619.47;;;11.87;79.43
17362;BME280;8798;51.938;4.348;2023-04-23T02:22:36;100601.13;;;11.82;79.52
17362;BME280;8798;51.938;4.348;2023-04-23T02:25:05;100597.75;;;11.80;79.17
17362;BME280;8798;51.938;4.348;2023-04-23T02:27:34;100575.69;;;11.76;79.25
17362;BME280;8798;51.938;4.348;2023-04-23T02:30:02;100564.25;;;11.74;79.39
17362;BME280;8798;51.938;4.348;2023-04-23T02:32:31;100557.34;;;11.72;79.71
17362;BME280;8798;51.938;4.348;2023-04-23T02:34:59;100547.75;;;11.69;79.09
17362;BME280;8798;51.938;4.348;2023-04-23T02:37:27;100549.63;;;11.69;79.44
17362;BME280;8798;51.938;4.348;2023-04-23T02:39:55;100545.25;;;11.68;79.41
17362;BME280;8798;51.938;4.348;2023-04-23T02:42:23;100533.81;;;11.66;79.24
17362;BME280;8798;51.938;4.348;2023-04-23T02:44:50;100525.91;;;11.64;79.70
17362;BME280;8798;51.938;4.348;2023-04-23T02:47:18;100522.38;;;11.63;79.41
17362;BME280;8798;51.938;4.348;2023-04-23T02:49:47;100525.91;;;11.64;79.58
17362;BME280;8798;51.938;4.348;2023-04-23T02:52:15;100536.50;;;11.66;79.04
17362;BME280;8798;51.938;4.348;2023-04-23T02:54:43;100549.63;;;11.69;79.57
17362;BME280;8798;51.938;4.348;2023-04-23T02:57:11;100553.16;;;11.69;79.48
17362;BME280;8798;51.938;4.348;2023-04-23T02:59:41;100558.38;;;11.71;79.73
17362;BME280;8798;51.938;4.348;2023-04-23T03:02:09;100586.63;;;11.75;79.77
17362;BME280;8798;51.938;4.348;2023-04-23T03:04:37;100598.72;;;11.79;79.39
17362;BME280;8798;51.938;4.348;2023-04-23T03:07:08;100624.16;;;11.84;79.09
17362;BME280;8798;51.938;4.348;2023-04-23T03:09:38;100646.91;;;11.90;79.30
17362;BME280;8798;51.938;4.348;2023-04-23T03:12:07;100661.72;;;11.94;79.54
17362;BME280;8798;51.938;4.348;2023-04-23T03:14:35;100678.22;;;11.99;79.09
17362;BME280;8798;51.938;4.348;2023-04-23T03:17:03;100693.22;;;12.02;79.22
17362;BME280;8798;51.938;4.348;2023-04-23T03:19:31;100704.47;;;12.05;79.23
17362;BME280;8798;51.938;4.348;2023-04-23T03:21:59;100713.22;;;12.08;79.20
17362;BME280;8798;51.938;4.348;2023-04-23T03:24:30;100718.47;;;12.09;79.25
17362;BME280;8798;51.938;4.348;2023-04-23T03:26:58;100727.03;;;12.13;79.12
17362;BME280;8798;51.938;4.348;2023-04-23T03:29:26;100730.41;;;12.15;79.69
17362;BME280;8798;51.938;4.348;2023-04-23T03:31:54;100739.19;;;12.17;79.21
17362;BME280;8798;51.938;4.348;2023-04-23T03:34:22;100740.84;;;12.18;79.08
17362;BME280;8798;51.938;4.348;2023-04-23T03:36:50;100742.53;;;12.19;79.17
17362;BME280;8798;51.938;4.348;2023-04-23T03:39:18;100737.31;;;12.17;79.36
17362;BME280;8798;51.938;4.348;2023-04-23T03:41:47;100737.13;;;12.19;79.36
17362;BME280;8798;51.938;4.348;2023-04-23T03:44:15;100743.41;;;12.19;79.45
17362;BME280;8798;51.938;4.348;2023-04-23T03:46:43;100741.34;;;12.21;79.70
17362;BME280;8798;51.938;4.348;2023-04-23T03:49:10;100749.28;;;12.23;79.16
17362;BME280;8798;51.938;4.348;2023-04-23T03:51:38;100745.75;;;12.22;79.54
17362;BME280;8798;51.938;4.348;2023-04-23T03:54:06;100749.28;;;12.23;78.82
17362;BME280;8798;51.938;4.348;2023-04-23T03:56:34;100746.75;;;12.21;78.94
17362;BME280;8798;51.938;4.348;2023-04-23T03:59:03;100734.28;;;12.20;79.35
17362;BME280;8798;51.938;4.348;2023-04-23T04:01:33;100726.38;;;12.19;79.34
17362;BME280;8798;51.938;4.348;2023-04-23T04:04:01;100720.97;;;12.19;79.39
17362;BME280;8798;51.938;4.348;2023-04-23T04:06:30;100725.38;;;12.20;79.37
17362;BME280;8798;51.938;4.348;2023-04-23T04:08:57;100720.00;;;12.20;79.37
17362;BME280;8798;51.938;4.348;2023-04-23T04:11:25;100722.50;;;12.21;79.50
17362;BME280;8798;51.938;4.348;2023-04-23T04:13:53;100718.81;;;12.22;79.74
17362;BME280;8798;51.938;4.348;2023-04-23T04:16:22;100726.75;;;12.24;79.03
17362;BME280;8798;51.938;4.348;2023-04-23T04:18:50;100732.13;;;12.24;79.44
17362;BME280;8798;51.938;4.348;2023-04-23T04:21:21;100713.59;;;12.21;79.14
17362;BME280;8798;51.938;4.348;2023-04-23T04:23:49;100702.13;;;12.19;78.94
17362;BME280;8798;51.938;4.348;2023-04-23T04:26:17;100690.72;;;12.17;79.47
17362;BME280;8798;51.938;4.348;2023-04-23T04:28:45;100675.88;;;12.13;79.11
17362;BME280;8798;51.938;4.348;2023-04-23T04:31:13;100659.22;;;12.09;79.48
17362;BME280;8798;51.938;4.348;2023-04-23T04:33:43;100645.25;;;12.05;79.27
17362;BME280;8798;51.938;4.348;2023-04-23T04:36:12;100633.97;;;12.02;79.49
17362;BME280;8798;51.938;4.348;2023-04-23T04:38:40;100599.47;;;11.97;79.21
17362;BME280;8798;51.938;4.348;2023-04-23T04:41:09;100584.66;;;11.93;79.09
17362;BME280;8798;51.938;4.348;2023-04-23T04:43:37;100571.69;;;11.89;78.89
17362;BME280;8798;51.938;4.348;2023-04-23T04:46:05;100545.44;;;11.82;78.78
17362;BME280;8798;51.938;4.348;2023-04-23T04:48:33;100519.03;;;11.78;78.87
17362;BME280;8798;51.938;4.348;2023-04-23T04:51:02;100528.94;;;11.77;79.42
17362;BME280;8798;51.938;4.348;2023-04-23T04:53:30;100526.94;;;11.79;79.20
17362;BME280;8798;51.938;4.348;2023-04-23T04:55:58;100532.47;;;11.78;78.98
17362;BME280;8798;51.938;4.348;2023-04-23T04:58:26;100508.59;;;11.75;79.06
17362;BME280;8798;51.938;4.348;2023-04-23T05:00:54;100497.50;;;11.70;78.94
17362;BME280;8798;51.938;4.348;2023-04-23T05:03:22;100480.00;;;11.66;78.86
17362;BME280;8798;51.938;4.348;2023-04-23T05:05:50;100461.66;;;11.61;78.75
17362;BME280;8798;51.938;4.348;2023-04-23T05:08:19;100456.63;;;11.58;78.94
17362;BME280;8798;51.938;4.348;2023-04-23T05:10:47;100437.28;;;11.54;79.23
17362;BME280;8798;51.938;4.348;2023-04-23T05:13:16;100435.63;;;11.53;78.83
17362;BME280;8798;51.938;4.348;2023-04-23T05:15:45;100428.88;;;11.49;79.20
17362;BME280;8798;51.938;4.348;2023-04-23T05:18:13;100414.75;;;11.47;79.12
17362;BME280;8798;51.938;4.348;2023-04-23T05:20:41;100415.94;;;11.45;79.45
17362;BME280;8798;51.938;4.348;2023-04-23T05:23:09;100405.38;;;11.43;79.29
17362;BME280;8798;51.938;4.348;2023-04-23T05:25:38;100403.66;;;11.42;78.63
17362;BME280;8798;51.938;4.348;2023-04-23T05:28:06;100411.72;;;11.42;79.08
17362;BME280;8798;51.938;4.348;2023-04-23T05:30:35;100417.97;;;11.43;79.22
17362;BME280;8798;51.938;4.348;2023-04-23T05:33:03;100425.03;;;11.44;79.00
17362;BME280;8798;51.938;4.348;2023-04-23T05:35:31;100428.53;;;11.44;78.87
17362;BME280;8798;51.938;4.348;2023-04-23T05:37:58;100431.09;;;11.46;78.87
17362;BME280;8798;51.938;4.348;2023-04-23T05:40:28;100441.66;;;11.47;78.80
17362;BME280;8798;51.938;4.348;2023-04-23T05:42:58;100454.94;;;11.49;78.98
17362;BME280;8798;51.938;4.348;2023-04-23T05:45:26;100463.69;;;11.51;79.03
17362;BME280;8798;51.938;4.348;2023-04-23T05:47:53;100480.31;;;11.54;79.03
17362;BME280;8798;51.938;4.348;2023-04-23T05:50:21;100506.72;;;11.59;79.55
17362;BME280;8798;51.938;4.348;2023-04-23T05:52:49;100529.41;;;11.65;78.77
17362;BME280;8798;51.938;4.348;2023-04-23T05:55:17;100541.53;;;11.69;79.07
17362;BME280;8798;51.938;4.348;2023-04-23T05:57:46;100559.88;;;11.73;79.37
17362;BME280;8798;51.938;4.348;2023-04-23T06:00:15;100574.69;;;11.77;79.49
17362;BME280;8798;51.938;4.348;2023-04-23T06:02:43;100601.13;;;11.82;79.46
17362;BME280;8798;51.938;4.348;2023-04-23T06:05:11;100623.84;;;11.88;79.32
17362;BME280;8798;51.938;4.348;2023-04-23T06:07:39;100644.72;;;11.94;79.11
17362;BME280;8798;51.938;4.348;2023-04-23T06:10:08;100664.09;;;11.97;78.95
17362;BME280;8798;51.938;4.348;2023-04-23T06:12:36;100686.81;;;12.03;79.35
17362;BME280;8798;51.938;4.348;2023-04-23T06:15:06;100699.78;;;12.08;79.49
17362;BME280;8798;51.938;4.348;2023-04-23T06:17:36;100711.22;;;12.10;79.47
17362;BME280;8798;51.938;4.348;2023-04-23T06:20:06;100724.19;;;12.14;79.43
17362;BME280;8798;51.938;4.348;2023-04-23T06:22:34;100737.31;;;12.17;79.09
17362;BME280;8798;51.938;4.348;2023-04-23T06:25:02;100744.22;;;12.20;79.11
17362;BME280;8798;51.938;4.348;2023-04-23T06:27:30;100753.81;;;12.22;79.09
17362;BME280;8798;51.938;4.348;2023-04-23T06:29:59;100770.34;;;12.27;78.88
17362;BME280;8798;51.938;4.348;2023-04-23T06:32:26;100773.53;;;12.31;78.87
17362;BME280;8798;51.938;4.348;2023-04-23T06:34:56;100797.28;;;12.36;79.22
17362;BME280;8798;51.938;4.348;2023-04-23T06:37:27;100818.34;;;12.40;79.51
17362;BME280;8798;51.938;4.348;2023-04-23T06:39:57;100835.88;;;12.44;78.92
17362;BME280;8798;51.938;4.348;2023-04-23T06:42:25;100848.66;;;12.51;79.32
17362;BME280;8798;51.938;4.348;2023-04-23T06:44:53;100862.50;;;12.56;79.15
17362;BME280;8798;51.938;4.348;2023-04-23T06:47:21;100890.47;;;12.63;78.82
17362;BME280;8798;51.938;4.348;2023-04-23T06:49:49;100903.31;;;12.69;79.46
17362;BME280;8798;51.938;4.348;2023-04-23T06:52:19;100923.38;;;12.75;79.10
17362;BME280;8798;51.938;4.348;2023-04-23T06:54:46;100941.75;;;12.79;78.89
17362;BME280;8798;51.938;4.348;2023-04-23T06:57:14;100956.59;;;12.83;78.79
17362;BME280;8798;51.938;4.348;2023-04-23T06:59:42;100965.19;;;12.87;78.68
17362;BME280;8798;51.938;4.348;2023-04-23T07:02:10;100955.94;;;12.89;78.60
17362;BME280;8798;51.938;4.348;2023-04-23T07:04:37;100956.75;;;12.90;78.72
17362;BME280;8798;51.938;4.348;2023-04-23T07:07:06;100960.16;;;12.92;78.60
17362;BME280;8798;51.938;4.348;2023-04-23T07:09:35;100963.69;;;12.93;79.01
17362;BME280;8798;51.938;4.348;2023-04-23T07:12:04;100965.03;;;12.97;78.65
17362;BME280;8798;51.938;4.348;2023-04-23T07:14:32;100971.13;;;12.99;79.14
17362;BME280;8798;51.938;4.348;2023-04-23T07:16:59;100976.03;;;13.03;78.60
17362;BME280;8798;51.938;4.348;2023-04-23T07:19:27;100998.94;;;13.07;78.61
17362;BME280;8798;51.938;4.348;2023-04-23T07:21:55;101013.66;;;13.13;78.57
17362;BME280;8798;51.938;4.348;2023-04-23T07:24:23;101023.75;;;13.19;78.41
17362;BME280;8798;51.938;4.348;2023-04-23T07:26:53;101037.75;;;13.23;78.42
17362;BME280;8798;51.938;4.348;2023-04-23T07:29:21;101055.00;;;13.30;78.63
17362;BME280;8798;51.938;4.348;2023-04-23T07:31:49;101080.31;;;13.37;78.40
17362;BME280;8798;51.938;4.348;2023-04-23T07:34:17;101104.66;;;13.45;78.91
17362;BME280;8798;51.938;4.348;2023-04-23T07:36:44;101125.44;;;13.53;78.78
17362;BME280;8798;51.938;4.348;2023-04-23T07:39:12;101148.06;;;13.60;78.02
17362;BME280;8798;51.938;4.348;2023-04-23T07:41:40;101178.59;;;13.69;78.25
17362;BME280;8798;51.938;4.348;2023-04-23T07:44:09;101187.06;;;13.74;78.40
17362;BME280;8798;51.938;4.348;2023-04-23T07:46:37;101200.91;;;13.79;78.49
17362;BME280;8798;51.938;4.348;2023-04-23T07:49:05;101195.34;;;13.81;77.98
17362;BME280;8798;51.938;4.348;2023-04-23T07:51:33;101183.72;;;13.80;78.30
17362;BME280;8798;51.938;4.348;2023-04-23T07:54:01;101178.13;;;13.82;77.96
17362;BME280;8798;51.938;4.348;2023-04-23T07:56:29;101166.50;;;13.81;78.09
17362;BME280;8798;51.938;4.348;2023-04-23T07:58:58;101168.16;;;13.82;77.97
17362;BME280;8798;51.938;4.348;2023-04-23T08:01:28;101163.28;;;13.86;77.92
17362;BME280;8798;51.938;4.348;2023-04-23T08:03:56;101174.59;;;13.89;78.13
17362;BME280;8798;51.938;4.348;2023-04-23T08:06:26;101179.50;;;13.94;77.53
17362;BME280;8798;51.938;4.348;2023-04-23T08:08:56;101182.75;;;13.97;77.81
17362;BME280;8798;51.938;4.348;2023-04-23T08:11:25;101191.34;;;14.01;77.50
17362;BME280;8798;51.938;4.348;2023-04-23T08:13:54;101188.31;;;14.04;77.42
17362;BME280;8798;51.938;4.348;2023-04-23T08:16:22;101203.88;;;14.10;77.30
17362;BME280;8798;51.938;4.348;2023-04-23T08:18:52;101219.41;;;14.16;77.39
17362;BME280;8798;51.938;4.348;2023-04-23T08:21:31;101227.84;;;14.22;77.67
17362;BME280;8798;51.938;4.348;2023-04-23T08:23:59;101240.03;;;14.26;77.09
17362;BME280;8798;51.938;4.348;2023-04-23T08:26:28;101224.50;;;14.28;77.43
17362;BME280;8798;51.938;4.348;2023-04-23T08:28:56;101229.75;;;14.29;77.28
17362;BME280;8798;51.938;4.348;2023-04-23T08:31:26;101231.28;;;14.32;76.96
17362;BME280;8798;51.938;4.348;2023-04-23T08:33:55;101229.06;;;14.35;77.14
17362;BME280;8798;51.938;4.348;2023-04-23T08:36:23;101236.84;;;14.38;76.90
17362;BME280;8798;51.938;4.348;2023-04-23T08:38:53;101239.22;;;14.41;76.86
17362;BME280;8798;51.938;4.348;2023-04-23T08:41:22;101236.34;;;14.43;76.67
17362;BME280;8798;51.938;4.348;2023-04-23T08:44:06;101241.94;;;14.50;76.72
17362;BME280;8798;51.938;4.348;2023-04-23T08:46:41;101258.53;;;14.55;76.78
17362;BME280;8798;51.938;4.348;2023-04-23T08:49:13;101269.69;;;14.60;76.77
17362;BME280;8798;51.938;4.348;2023-04-23T08:51:47;101256.84;;;14.62;76.69
17362;BME280;8798;51.938;4.348;2023-04-23T08:54:19;101263.78;;;14.65;76.42
17362;BME280;8798;51.938;4.348;2023-04-23T08:56:48;101267.81;;;14.69;76.36
17362;BME280;8798;51.938;4.348;2023-04-23T08:59:17;101263.28;;;14.69;76.39
17362;BME280;8798;51.938;4.348;2023-04-23T09:01:46;101268.19;;;14.74;76.21
17362;BME280;8798;51.938;4.348;2023-04-23T09:04:16;101267.00;;;14.76;76.22
17362;BME280;8798;51.938;4.348;2023-04-23T09:06:45;101263.25;;;14.77;76.31
17362;BME280;8798;51.938;4.348;2023-04-23T09:09:15;101248.06;;;14.76;75.85
17362;BME280;8798;51.938;4.348;2023-04-23T09:11:43;101241.47;;;14.79;75.88
17362;BME280;8798;51.938;4.348;2023-04-23T09:14:11;101266.81;;;14.86;75.77
17362;BME280;8798;51.938;4.348;2023-04-23T09:16:39;101306.88;;;14.99;75.82
17362;BME280;8798;51.938;4.348;2023-04-23T09:19:08;101340.53;;;15.13;75.82
17362;BME280;8798;51.938;4.348;2023-04-23T09:21:38;101406.50;;;15.28;75.40
17362;BME280;8798;51.938;4.348;2023-04-23T09:24:08;101446.44;;;15.42;75.62
17362;BME280;8798;51.938;4.348;2023-04-23T09:26:43;101488.25;;;15.56;75.54
17362;BME280;8798;51.938;4.348;2023-04-23T09:29:12;101532.78;;;15.70;75.63
17362;BME280;8798;51.938;4.348;2023-04-23T09:31:43;101548.22;;;15.78;75.26
17362;BME280;8798;51.938;4.348;2023-04-23T09:34:11;101539.06;;;15.79;75.11
17362;BME280;8798;51.938;4.348;2023-04-23T09:36:43;101507.75;;;15.76;75.19
17362;BME280;8798;51.938;4.348;2023-04-23T09:39:12;101480.16;;;15.73;74.93
17362;BME280;8798;51.938;4.348;2023-04-23T09:41:40;101460.34;;;15.72;74.97
17362;BME280;8798;51.938;4.348;2023-04-23T09:44:08;101427.47;;;15.67;74.64
17362;BME280;8798;51.938;4.348;2023-04-23T09:46:38;101402.25;;;15.66;74.58
17362;BME280;8798;51.938;4.348;2023-04-23T09:49:08;101409.06;;;15.71;74.57
17362;BME280;8798;51.938;4.348;2023-04-23T09:51:36;101416.69;;;15.75;74.40
17362;BME280;8798;51.938;4.348;2023-04-23T09:54:11;101417.16;;;15.79;74.45
17362;BME280;8798;51.938;4.348;2023-04-23T09:56:40;101411.41;;;15.82;74.42
17362;BME280;8798;51.938;4.348;2023-04-23T09:59:21;101419.00;;;15.86;73.89
17362;BME280;8798;51.938;4.348;2023-04-23T10:02:10;101441.34;;;15.97;74.04
17362;BME280;8798;51.938;4.348;2023-04-23T10:04:38;101497.41;;;16.12;73.96
17362;BME280;8798;51.938;4.348;2023-04-23T10:07:07;101517.19;;;16.21;73.78
17362;BME280;8798;51.938;4.348;2023-04-23T10:09:44;101559.72;;;16.37;73.50
17362;BME280;8798;51.938;4.348;2023-04-23T10:12:13;101597.16;;;16.50;73.48
17362;BME280;8798;51.938;4.348;2023-04-23T10:14:45;101635.44;;;16.63;73.56
17362;BME280;8798;51.938;4.348;2023-04-23T10:17:15;101650.00;;;16.70;73.34
17362;BME280;8798;51.938;4.348;2023-04-23T10:19:43;101676.84;;;16.82;73.21
17362;BME280;8798;51.938;4.348;2023-04-23T10:22:15;101695.44;;;16.93;73.06
17362;BME280;8798;51.938;4.348;2023-04-23T10:24:51;101716.31;;;17.01;72.81
17362;BME280;8798;51.938;4.348;2023-04-23T10:27:25;101744.97;;;17.11;72.60
17362;BME280;8798;51.938;4.348;2023-04-23T10:30:13;101746.00;;;17.18;72.62
17362;BME280;8798;51.938;4.348;2023-04-23T10:32:43;101742.91;;;17.22;72.30
17362;BME280;8798;51.938;4.348;2023-04-23T10:35:11;101723.56;;;17.25;71.97
17362;BME280;8798;51.938;4.348;2023-04-23T10:37:39;101712.34;;;17.28;71.88
17362;BME280;8798;51.938;4.348;2023-04-23T10:40:12;101757.97;;;17.40;71.72
17362;BME280;8798;51.938;4.348;2023-04-23T10:42:42;101780.16;;;17.52;71.41
17362;BME280;8798;51.938;4.348;2023-04-23T10:45:14;101814.94;;;17.65;71.09
17362;BME280;8798;51.938;4.348;2023-04-23T10:47:49;101821.22;;;17.74;71.35
17362;BME280;8798;51.938;4.348;2023-04-23T10:50:22;101806.59;;;17.75;71.08
17362;BME280;8798;51.938;4.348;2023-04-23T10:52:50;101784.69;;;17.76;70.60
17362;BME280;8798;51.938;4.348;2023-04-23T10:55:22;101756.00;;;17.74;70.58
17362;BME280;8798;51.938;4.348;2023-04-23T10:58:00;101742.03;;;17.77;70.13
17362;BME280;8798;51.938;4.348;2023-04-23T11:00:41;101722.00;;;17.78;70.08
17362;BME280;8798;51.938;4.348;2023-04-23T11:03:29;101701.09;;;17.78;69.86
17362;BME280;8798;51.938;4.348;2023-04-23T11:06:00;101698.06;;;17.81;69.37
17362;BME280;8798;51.938;4.348;2023-04-23T11:08:28;101667.31;;;17.81;69.10
17362;BME280;8798;51.938;4.348;2023-04-23T11:11:00;101665.91;;;17.85;69.24
17362;BME280;8798;51.938;4.348;2023-04-23T11:13:28;101669.78;;;17.91;69.18
17362;BME280;8798;51.938;4.348;2023-04-23T11:16:13;101687.72;;;18.00;68.83
17362;BME280;8798;51.938;4.348;2023-04-23T11:18:56;101677.53;;;18.02;68.60
17362;BME280;8798;51.938;4.348;2023-04-23T11:21:59;101653.72;;;18.04;68.46
17362;BME280;8798;51.938;4.348;2023-04-23T11:24:29;101647.06;;;18.07;68.56
17362;BME280;8798;51.938;4.348;2023-04-23T11:26:58;101655.38;;;18.13;68.20
17362;BME280;8798;51.938;4.348;2023-04-23T11:29:27;101647.50;;;18.18;67.97
17362;BME280;8798;51.938;4.348;2023-04-23T11:31:55;101664.59;;;18.27;67.84
17362;BME280;8798;51.938;4.348;2023-04-23T11:34:29;101684.59;;;18.34;67.77
17362;BME280;8798;51.938;4.348;2023-04-23T11:36:58;101701.34;;;18.46;67.72
17362;BME280;8798;51.938;4.348;2023-04-23T11:39:27;101749.53;;;18.60;67.30
17362;BME280;8798;51.938;4.348;2023-04-23T11:41:55;101766.47;;;18.70;67.08
17362;BME280;8798;51.938;4.348;2023-04-23T11:44:26;101780.69;;;18.81;66.95
17362;BME280;8798;51.938;4.348;2023-04-23T11:46:53;101765.19;;;18.81;66.93
17362;BME280;8798;51.938;4.348;2023-04-23T11:49:24;101733.56;;;18.80;66.90
17362;BME280;8798;51.938;4.348;2023-04-23T11:51:51;101728.25;;;18.87;66.70
17362;BME280;8798;51.938;4.348;2023-04-23T11:54:24;101718.84;;;18.89;66.30
17362;BME280;8798;51.938;4.348;2023-04-23T11:56:53;101689.09;;;18.88;66.00
17362;BME280;8798;51.938;4.348;2023-04-23T11:59:21;101646.06;;;18.83;65.79
17362;BME280;8798;51.938;4.348;2023-04-23T12:01:52;101665.91;;;18.92;65.80
17362;BME280;8798;51.938;4.348;2023-04-23T12:04:22;101653.59;;;18.96;65.63
17362;BME280;8798;51.938;4.348;2023-04-23T12:06:52;101632.66;;;18.97;65.53
17362;BME280;8798;51.938;4.348;2023-04-23T12:09:21;101636.69;;;19.01;65.22
17362;BME280;8798;51.938;4.348;2023-04-23T12:11:49;101614.72;;;19.02;64.86
17362;BME280;8798;51.938;4.348;2023-04-23T12:14:19;101585.78;;;19.01;64.72
17362;BME280;8798;51.938;4.348;2023-04-23T12:16:54;101532.25;;;18.94;64.76
17362;BME280;8798;51.938;4.348;2023-04-23T12:19:26;101489.47;;;18.87;64.68
17362;BME280;8798;51.938;4.348;2023-04-23T12:21:56;101407.81;;;18.73;64.33
17362;BME280;8798;51.938;4.348;2023-04-23T12:24:26;101340.47;;;18.60;64.55
17362;BME280;8798;51.938;4.348;2023-04-23T12:26:55;101249.22;;;18.42;64.48
17362;BME280;8798;51.938;4.348;2023-04-23T12:29:24;101179.19;;;18.30;63.89
17362;BME280;8798;51.938;4.348;2023-04-23T12:31:57;101118.41;;;18.16;64.22
17362;BME280;8798;51.938;4.348;2023-04-23T12:34:25;100987.00;;;17.87;64.14
17362;BME280;8798;51.938;4.348;2023-04-23T12:36:54;100825.97;;;17.50;63.81
17362;BME280;8798;51.938;4.348;2023-04-23T12:39:25;100714.25;;;17.25;63.98
17362;BME280;8798;51.938;4.348;2023-04-23T12:41:55;100623.91;;;17.03;63.90
17362;BME280;8798;51.938;4.348;2023-04-23T12:44:25;100499.53;;;16.72;64.11
17362;BME280;8798;51.938;4.348;2023-04-23T12:46:56;100395.28;;;16.46;64.02
17362;BME280;8798;51.938;4.348;2023-04-23T12:49:24;100324.31;;;16.29;64.23
17362;BME280;8798;51.938;4.348;2023-04-23T12:51:54;100279.00;;;16.17;64.45
17362;BME280;8798;51.938;4.348;2023-04-23T12:54:27;100263.16;;;16.13;64.32
17362;BME280;8798;51.938;4.348;2023-04-23T12:56:56;100292.19;;;16.20;64.60
17362;BME280;8798;51.938;4.348;2023-04-23T12:59:25;100326.41;;;16.27;64.62
17362;BME280;8798;51.938;4.348;2023-04-23T13:01:54;100351.03;;;16.32;64.57
17362;BME280;8798;51.938;4.348;2023-04-23T13:04:22;100423.88;;;16.49;64.62
17362;BME280;8798;51.938;4.348;2023-04-23T13:06:50;100515.81;;;16.72;64.84
17362;BME280;8798;51.938;4.348;2023-04-23T13:09:18;100609.66;;;16.94;64.86
17362;BME280;8798;51.938;4.348;2023-04-23T13:11:47;100662.34;;;17.07;64.88